sensor_id;sensor_type;location;lat;lon;timestamp;P1;durP1;ratioP1;P2;durP2;ratioP2
3085;SDS011;52812;48.960;9.108;2023-05-10T00:00:10;1.50;;;1.40;;
3085;SDS011;52812;48.960;9.108;2023-05-10T00:02:37;1.50;;;1.30;;
3085;SDS011;52812;48.960;9.108;2023-05-10T00:05:03;1.53;;;1.20;;
3085;SDS011;52812;48.960;9.108;2023-05-10T00:07:30;1.30;;;1.20;;
3085;SDS011;52812;48.960;9.108;2023-05-10T00:09:55;1.00;;;0.90;;
3085;SDS011;52812;48.960;9.108;2023-05-10T00:12:21;1.30;;;1.20;;
3085;SDS011;52812;48.960;9.108;2023-05-10T00:14:46;1.13;;;1.03;;
3085;SDS011;52812;48.960;9.108;2023-05-10T00:17:12;1.63;;;1.20;;
3085;SDS011;52812;48.960;9.108;2023-05-10T00:19:37;1.87;;;1.00;;
3085;SDS011;52812;48.960;9.108;2023-05-10T00:22:03;1.43;;;1.07;;
3085;SDS011;52812;48.960;9.108;2023-05-10T00:24:28;2.20;;;1.10;;
3085;SDS011;52812;48.960;9.108;2023-05-10T00:26:54;1.20;;;1.10;;
3085;SDS011;52812;48.960;9.108;2023-05-10T00:29:19;2.20;;;1.00;;
3085;SDS011;52812;48.960;9.108;2023-05-10T00:31:45;1.40;;;1.30;;
3085;SDS011;52812;48.960;9.108;2023-05-10T00:34:11;1.13;;;1.03;;
3085;SDS011;52812;48.960;9.108;2023-05-10T00:36:36;1.57;;;1.20;;
3085;SDS011;52812;48.960;9.108;2023-05-10T00:39:02;3.43;;;1.53;;
3085;SDS011;52812;48.960;9.108;2023-05-10T00:41:28;1.17;;;1.07;;
3085;SDS011;52812;48.960;9.108;2023-05-10T00:43:57;2.90;;;1.17;;
3085;SDS011;52812;48.960;9.108;2023-05-10T00:46:22;1.33;;;1.23;;
3085;SDS011;52812;48.960;9.108;2023-05-10T00:48:49;4.50;;;1.10;;
3085;SDS011;52812;48.960;9.108;2023-05-10T00:51:14;1.30;;;1.20;;
3085;SDS011;52812;48.960;9.108;2023-05-10T00:53:40;1.37;;;1.27;;
3085;SDS011;52812;48.960;9.108;2023-05-10T00:56:06;1.40;;;1.10;;
3085;SDS011;52812;48.960;9.108;2023-05-10T00:58:31;1.30;;;1.20;;
3085;SDS011;52812;48.960;9.108;2023-05-10T01:00:58;1.77;;;1.23;;
3085;SDS011;52812;48.960;9.108;2023-05-10T01:03:24;1.70;;;1.60;;
3085;SDS011;52812;48.960;9.108;2023-05-10T01:05:50;1.50;;;1.40;;
3085;SDS011;52812;48.960;9.108;2023-05-10T01:08:15;1.77;;;1.53;;
3085;SDS011;52812;48.960;9.108;2023-05-10T01:10:42;1.60;;;1.50;;
3085;SDS011;52812;48.960;9.108;2023-05-10T01:13:08;1.67;;;1.57;;
3085;SDS011;52812;48.960;9.108;2023-05-10T01:15:34;1.50;;;1.40;;
3085;SDS011;52812;48.960;9.108;2023-05-10T01:18:01;1.60;;;1.50;;
3085;SDS011;52812;48.960;9.108;2023-05-10T01:20:28;2.10;;;1.73;;
3085;SDS011;52812;48.960;9.108;2023-05-10T01:31:34;1.80;;;1.70;;
3085;SDS011;52812;48.960;9.108;2023-05-10T01:37:28;1.90;;;1.70;;
3085;SDS011;52812;48.960;9.108;2023-05-10T01:42:46;2.87;;;1.83;;
3085;SDS011;52812;48.960;9.108;2023-05-10T01:48:12;3.30;;;1.80;;
3085;SDS011;52812;48.960;9.108;2023-05-10T01:50:41;2.27;;;1.70;;
3085;SDS011;52812;48.960;9.108;2023-05-10T01:53:09;2.00;;;1.80;;
3085;SDS011;52812;48.960;9.108;2023-05-10T01:55:39;2.17;;;1.83;;
3085;SDS011;52812;48.960;9.108;2023-05-10T01:58:16;8.00;;;2.10;;
3085;SDS011;52812;48.960;9.108;2023-05-10T02:00:53;1.87;;;1.77;;
3085;SDS011;52812;48.960;9.108;2023-05-10T02:03:23;2.90;;;1.87;;
3085;SDS011;52812;48.960;9.108;2023-05-10T02:05:50;2.10;;;1.90;;
3085;SDS011;52812;48.960;9.108;2023-05-10T02:08:18;2.27;;;1.83;;
3085;SDS011;52812;48.960;9.108;2023-05-10T02:10:45;1.90;;;1.63;;
3085;SDS011;52812;48.960;9.108;2023-05-10T02:13:12;2.30;;;1.80;;
3085;SDS011;52812;48.960;9.108;2023-05-10T02:15:39;1.97;;;1.70;;
3085;SDS011;52812;48.960;9.108;2023-05-10T02:18:06;2.17;;;1.90;;
3085;SDS011;52812;48.960;9.108;2023-05-10T02:20:34;2.17;;;1.80;;
3085;SDS011;52812;48.960;9.108;2023-05-10T02:23:00;2.63;;;1.93;;
3085;SDS011;52812;48.960;9.108;2023-05-10T02:25:28;2.70;;;1.83;;
3085;SDS011;52812;48.960;9.108;2023-05-10T02:27:55;2.37;;;2.17;;
3085;SDS011;52812;48.960;9.108;2023-05-10T02:30:22;2.20;;;2.00;;
3085;SDS011;52812;48.960;9.108;2023-05-10T02:32:49;2.03;;;1.77;;
3085;SDS011;52812;48.960;9.108;2023-05-10T02:35:16;1.87;;;1.67;;
3085;SDS011;52812;48.960;9.108;2023-05-10T02:37:42;2.13;;;1.93;;
3085;SDS011;52812;48.960;9.108;2023-05-10T02:40:10;3.30;;;2.00;;
3085;SDS011;52812;48.960;9.108;2023-05-10T02:42:37;2.43;;;2.00;;
3085;SDS011;52812;48.960;9.108;2023-05-10T02:45:14;2.40;;;2.10;;
3085;SDS011;52812;48.960;9.108;2023-05-10T02:47:43;2.50;;;1.73;;
3085;SDS011;52812;48.960;9.108;2023-05-10T02:50:08;2.70;;;2.33;;
3085;SDS011;52812;48.960;9.108;2023-05-10T02:52:37;3.53;;;2.37;;
3085;SDS011;52812;48.960;9.108;2023-05-10T02:55:09;2.50;;;2.30;;
3085;SDS011;52812;48.960;9.108;2023-05-10T02:57:40;2.43;;;2.10;;
3085;SDS011;52812;48.960;9.108;2023-05-10T03:00:10;2.80;;;2.40;;
3085;SDS011;52812;48.960;9.108;2023-05-10T03:02:36;3.33;;;2.50;;
3085;SDS011;52812;48.960;9.108;2023-05-10T03:05:01;2.43;;;2.23;;
3085;SDS011;52812;48.960;9.108;2023-05-10T03:07:28;3.20;;;2.43;;
3085;SDS011;52812;48.960;9.108;2023-05-10T03:09:54;2.50;;;2.30;;
3085;SDS011;52812;48.960;9.108;2023-05-10T03:12:26;3.43;;;2.63;;
3085;SDS011;52812;48.960;9.108;2023-05-10T03:15:25;2.73;;;2.27;;
3085;SDS011;52812;48.960;9.108;2023-05-10T03:20:43;3.27;;;2.77;;
3085;SDS011;52812;48.960;9.108;2023-05-10T03:23:13;3.27;;;2.97;;
3085;SDS011;52812;48.960;9.108;2023-05-10T03:25:56;3.60;;;2.87;;
3085;SDS011;52812;48.960;9.108;2023-05-10T03:28:22;3.40;;;2.90;;
3085;SDS011;52812;48.960;9.108;2023-05-10T03:30:50;3.50;;;3.20;;
3085;SDS011;52812;48.960;9.108;2023-05-10T03:33:18;3.83;;;3.40;;
3085;SDS011;52812;48.960;9.108;2023-05-10T03:35:43;3.30;;;3.00;;
3085;SDS011;52812;48.960;9.108;2023-05-10T03:38:10;3.87;;;2.90;;
3085;SDS011;52812;48.960;9.108;2023-05-10T03:40:36;4.20;;;3.63;;
3085;SDS011;52812;48.960;9.108;2023-05-10T03:43:02;3.67;;;3.17;;
3085;SDS011;52812;48.960;9.108;2023-05-10T03:45:28;3.67;;;3.07;;
3085;SDS011;52812;48.960;9.108;2023-05-10T03:47:53;4.87;;;3.30;;
3085;SDS011;52812;48.960;9.108;2023-05-10T03:50:19;5.00;;;3.53;;
3085;SDS011;52812;48.960;9.108;2023-05-10T03:52:45;5.63;;;3.93;;
3085;SDS011;52812;48.960;9.108;2023-05-10T03:55:10;4.70;;;3.10;;
3085;SDS011;52812;48.960;9.108;2023-05-10T03:57:36;7.33;;;3.63;;
3085;SDS011;52812;48.960;9.108;2023-05-10T04:00:02;4.07;;;3.50;;
3085;SDS011;52812;48.960;9.108;2023-05-10T04:02:29;6.03;;;4.17;;
3085;SDS011;52812;48.960;9.108;2023-05-10T04:04:55;5.50;;;4.00;;
3085;SDS011;52812;48.960;9.108;2023-05-10T04:07:20;5.30;;;3.80;;
3085;SDS011;52812;48.960;9.108;2023-05-10T04:09:46;4.43;;;3.53;;
3085;SDS011;52812;48.960;9.108;2023-05-10T04:12:12;5.70;;;4.17;;
3085;SDS011;52812;48.960;9.108;2023-05-10T04:14:37;8.10;;;5.50;;
3085;SDS011;52812;48.960;9.108;2023-05-10T04:17:03;9.97;;;6.83;;
3085;SDS011;52812;48.960;9.108;2023-05-10T04:19:32;7.10;;;5.07;;
3085;SDS011;52812;48.960;9.108;2023-05-10T04:21:58;5.37;;;4.23;;
3085;SDS011;52812;48.960;9.108;2023-05-10T04:24:23;6.77;;;4.37;;
3085;SDS011;52812;48.960;9.108;2023-05-10T04:26:49;4.80;;;4.00;;
3085;SDS011;52812;48.960;9.108;2023-05-10T04:29:15;3.50;;;3.20;;
3085;SDS011;52812;48.960;9.108;2023-05-10T04:31:41;4.53;;;3.70;;
3085;SDS011;52812;48.960;9.108;2023-05-10T04:34:07;4.50;;;3.70;;
3085;SDS011;52812;48.960;9.108;2023-05-10T04:36:32;4.30;;;3.73;;
3085;SDS011;52812;48.960;9.108;2023-05-10T04:39:00;4.47;;;3.50;;
3085;SDS011;52812;48.960;9.108;2023-05-10T04:41:27;4.07;;;3.13;;
3085;SDS011;52812;48.960;9.108;2023-05-10T04:43:53;3.40;;;3.10;;
3085;SDS011;52812;48.960;9.108;2023-05-10T04:46:18;4.20;;;3.43;;
3085;SDS011;52812;48.960;9.108;2023-05-10T04:48:44;5.07;;;3.20;;
3085;SDS011;52812;48.960;9.108;2023-05-10T04:51:10;4.37;;;3.33;;
3085;SDS011;52812;48.960;9.108;2023-05-10T04:53:35;4.73;;;3.37;;
3085;SDS011;52812;48.960;9.108;2023-05-10T04:56:01;4.80;;;3.30;;
3085;SDS011;52812;48.960;9.108;2023-05-10T04:58:27;3.23;;;2.90;;
3085;SDS011;52812;48.960;9.108;2023-05-10T05:00:52;4.33;;;3.50;;
3085;SDS011;52812;48.960;9.108;2023-05-10T05:03:18;4.00;;;3.30;;
3085;SDS011;52812;48.960;9.108;2023-05-10T05:05:43;3.77;;;3.37;;
3085;SDS011;52812;48.960;9.108;2023-05-10T05:08:09;5.80;;;3.90;;
3085;SDS011;52812;48.960;9.108;2023-05-10T05:10:35;5.67;;;3.80;;
3085;SDS011;52812;48.960;9.108;2023-05-10T05:13:00;3.03;;;2.73;;
3085;SDS011;52812;48.960;9.108;2023-05-10T05:15:26;4.13;;;3.00;;
3085;SDS011;52812;48.960;9.108;2023-05-10T05:17:52;4.67;;;3.63;;
3085;SDS011;52812;48.960;9.108;2023-05-10T05:20:17;4.60;;;3.57;;
3085;SDS011;52812;48.960;9.108;2023-05-10T05:22:43;4.30;;;3.30;;
3085;SDS011;52812;48.960;9.108;2023-05-10T05:25:09;7.30;;;3.60;;
3085;SDS011;52812;48.960;9.108;2023-05-10T05:27:35;3.47;;;3.17;;
3085;SDS011;52812;48.960;9.108;2023-05-10T05:30:00;4.40;;;3.20;;
3085;SDS011;52812;48.960;9.108;2023-05-10T05:32:26;3.93;;;3.20;;
3085;SDS011;52812;48.960;9.108;2023-05-10T05:34:52;4.20;;;3.50;;
3085;SDS011;52812;48.960;9.108;2023-05-10T05:37:18;5.70;;;3.40;;
3085;SDS011;52812;48.960;9.108;2023-05-10T05:39:45;4.10;;;3.37;;
3085;SDS011;52812;48.960;9.108;2023-05-10T05:42:11;3.60;;;3.30;;
3085;SDS011;52812;48.960;9.108;2023-05-10T05:44:38;4.60;;;3.23;;
3085;SDS011;52812;48.960;9.108;2023-05-10T05:47:05;5.73;;;3.67;;
3085;SDS011;52812;48.960;9.108;2023-05-10T05:49:31;4.67;;;3.00;;
3085;SDS011;52812;48.960;9.108;2023-05-10T05:52:00;3.70;;;3.37;;
3085;SDS011;52812;48.960;9.108;2023-05-10T05:54:26;4.10;;;3.47;;
3085;SDS011;52812;48.960;9.108;2023-05-10T05:56:59;3.33;;;3.03;;
3085;SDS011;52812;48.960;9.108;2023-05-10T05:59:25;5.30;;;3.80;;
3085;SDS011;52812;48.960;9.108;2023-05-10T06:01:51;4.50;;;3.47;;
3085;SDS011;52812;48.960;9.108;2023-05-10T06:04:17;3.93;;;3.10;;
3085;SDS011;52812;48.960;9.108;2023-05-10T06:06:43;3.93;;;3.53;;
3085;SDS011;52812;48.960;9.108;2023-05-10T06:09:09;4.50;;;3.37;;
3085;SDS011;52812;48.960;9.108;2023-05-10T06:11:35;3.53;;;3.23;;
3085;SDS011;52812;48.960;9.108;2023-05-10T06:14:00;5.20;;;3.87;;
3085;SDS011;52812;48.960;9.108;2023-05-10T06:16:26;6.30;;;3.90;;
3085;SDS011;52812;48.960;9.108;2023-05-10T06:18:52;5.00;;;3.60;;
3085;SDS011;52812;48.960;9.108;2023-05-10T06:21:18;5.03;;;3.77;;
3085;SDS011;52812;48.960;9.108;2023-05-10T06:23:44;4.00;;;3.50;;
3085;SDS011;52812;48.960;9.108;2023-05-10T06:26:09;3.80;;;3.40;;
3085;SDS011;52812;48.960;9.108;2023-05-10T06:28:35;4.73;;;3.57;;
3085;SDS011;52812;48.960;9.108;2023-05-10T06:31:03;3.30;;;3.00;;
3085;SDS011;52812;48.960;9.108;2023-05-10T06:33:29;3.87;;;3.33;;
3085;SDS011;52812;48.960;9.108;2023-05-10T06:35:55;3.80;;;3.40;;
3085;SDS011;52812;48.960;9.108;2023-05-10T06:38:20;3.93;;;3.13;;
3085;SDS011;52812;48.960;9.108;2023-05-10T06:40:46;6.23;;;3.50;;
3085;SDS011;52812;48.960;9.108;2023-05-10T06:43:12;4.70;;;3.33;;
3085;SDS011;52812;48.960;9.108;2023-05-10T06:45:37;3.47;;;2.90;;
3085;SDS011;52812;48.960;9.108;2023-05-10T06:48:03;3.50;;;3.13;;
3085;SDS011;52812;48.960;9.108;2023-05-10T06:50:28;3.10;;;2.80;;
3085;SDS011;52812;48.960;9.108;2023-05-10T06:52:54;3.50;;;3.03;;
3085;SDS011;52812;48.960;9.108;2023-05-10T06:55:20;3.03;;;2.70;;
3085;SDS011;52812;48.960;9.108;2023-05-10T06:57:46;2.87;;;2.50;;
3085;SDS011;52812;48.960;9.108;2023-05-10T07:00:12;3.33;;;2.50;;
3085;SDS011;52812;48.960;9.108;2023-05-10T07:02:39;3.10;;;2.60;;
3085;SDS011;52812;48.960;9.108;2023-05-10T07:05:04;3.10;;;2.60;;
3085;SDS011;52812;48.960;9.108;2023-05-10T07:07:30;2.33;;;2.13;;
3085;SDS011;52812;48.960;9.108;2023-05-10T07:09:56;3.23;;;2.30;;
3085;SDS011;52812;48.960;9.108;2023-05-10T07:12:22;2.97;;;2.07;;
3085;SDS011;52812;48.960;9.108;2023-05-10T07:14:48;2.17;;;1.97;;
3085;SDS011;52812;48.960;9.108;2023-05-10T07:17:14;6.00;;;2.20;;
3085;SDS011;52812;48.960;9.108;2023-05-10T07:19:40;2.10;;;1.90;;
3085;SDS011;52812;48.960;9.108;2023-05-10T07:22:05;3.40;;;2.00;;
3085;SDS011;52812;48.960;9.108;2023-05-10T07:24:31;2.80;;;2.10;;
3085;SDS011;52812;48.960;9.108;2023-05-10T07:26:58;2.70;;;2.20;;
3085;SDS011;52812;48.960;9.108;2023-05-10T07:29:23;2.50;;;2.30;;
3085;SDS011;52812;48.960;9.108;2023-05-10T07:31:49;2.90;;;2.13;;
3085;SDS011;52812;48.960;9.108;2023-05-10T07:34:14;2.67;;;2.10;;
3085;SDS011;52812;48.960;9.108;2023-05-10T07:36:40;2.90;;;2.40;;
3085;SDS011;52812;48.960;9.108;2023-05-10T07:39:05;2.67;;;2.27;;
3085;SDS011;52812;48.960;9.108;2023-05-10T07:41:31;3.80;;;2.57;;
3085;SDS011;52812;48.960;9.108;2023-05-10T07:43:57;2.83;;;2.07;;
3085;SDS011;52812;48.960;9.108;2023-05-10T07:46:23;2.20;;;2.00;;
3085;SDS011;52812;48.960;9.108;2023-05-10T07:48:48;4.00;;;1.80;;
3085;SDS011;52812;48.960;9.108;2023-05-10T07:51:14;1.97;;;1.77;;
3085;SDS011;52812;48.960;9.108;2023-05-10T07:53:39;2.23;;;1.60;;
3085;SDS011;52812;48.960;9.108;2023-05-10T07:58:54;1.90;;;1.40;;
3085;SDS011;52812;48.960;9.108;2023-05-10T08:01:22;2.40;;;1.40;;
3085;SDS011;52812;48.960;9.108;2023-05-10T08:03:48;1.57;;;1.47;;
3085;SDS011;52812;48.960;9.108;2023-05-10T08:06:14;1.40;;;1.30;;
3085;SDS011;52812;48.960;9.108;2023-05-10T08:08:40;1.30;;;1.20;;
3085;SDS011;52812;48.960;9.108;2023-05-10T08:11:06;1.30;;;1.20;;
3085;SDS011;52812;48.960;9.108;2023-05-10T08:13:32;2.40;;;1.40;;
3085;SDS011;52812;48.960;9.108;2023-05-10T08:15:57;2.13;;;1.50;;
3085;SDS011;52812;48.960;9.108;2023-05-10T08:18:23;1.67;;;1.30;;
3085;SDS011;52812;48.960;9.108;2023-05-10T08:20:48;2.00;;;1.30;;
3085;SDS011;52812;48.960;9.108;2023-05-10T08:23:14;1.30;;;1.20;;
3085;SDS011;52812;48.960;9.108;2023-05-10T08:25:40;2.27;;;1.37;;
3085;SDS011;52812;48.960;9.108;2023-05-10T08:28:06;1.37;;;1.27;;
3085;SDS011;52812;48.960;9.108;2023-05-10T08:30:31;2.13;;;1.43;;
3085;SDS011;52812;48.960;9.108;2023-05-10T08:32:57;1.20;;;1.10;;
3085;SDS011;52812;48.960;9.108;2023-05-10T08:35:22;1.30;;;1.20;;
3085;SDS011;52812;48.960;9.108;2023-05-10T08:37:49;1.87;;;1.50;;
3085;SDS011;52812;48.960;9.108;2023-05-10T08:40:15;1.40;;;1.30;;
3085;SDS011;52812;48.960;9.108;2023-05-10T08:42:43;2.43;;;1.37;;
3085;SDS011;52812;48.960;9.108;2023-05-10T08:45:16;1.27;;;1.17;;
3085;SDS011;52812;48.960;9.108;2023-05-10T08:47:44;1.70;;;1.30;;
3085;SDS011;52812;48.960;9.108;2023-05-10T08:50:11;1.53;;;1.40;;
3085;SDS011;52812;48.960;9.108;2023-05-10T08:52:38;1.40;;;1.20;;
3085;SDS011;52812;48.960;9.108;2023-05-10T08:55:05;7.53;;;3.60;;
3085;SDS011;52812;48.960;9.108;2023-05-10T08:57:31;3.13;;;2.30;;
3085;SDS011;52812;48.960;9.108;2023-05-10T08:59:56;5.23;;;2.73;;
3085;SDS011;52812;48.960;9.108;2023-05-10T09:02:22;16.37;;;7.93;;
3085;SDS011;52812;48.960;9.108;2023-05-10T09:04:48;3.40;;;2.33;;
3085;SDS011;52812;48.960;9.108;2023-05-10T09:07:14;2.33;;;1.90;;
3085;SDS011;52812;48.960;9.108;2023-05-10T09:09:40;2.83;;;2.37;;
3085;SDS011;52812;48.960;9.108;2023-05-10T09:12:07;9.43;;;6.43;;
3085;SDS011;52812;48.960;9.108;2023-05-10T09:14:36;1.83;;;1.73;;
3085;SDS011;52812;48.960;9.108;2023-05-10T09:17:02;1.73;;;1.50;;
3085;SDS011;52812;48.960;9.108;2023-05-10T09:19:30;2.13;;;1.93;;
3085;SDS011;52812;48.960;9.108;2023-05-10T09:21:55;2.20;;;2.00;;
3085;SDS011;52812;48.960;9.108;2023-05-10T09:24:25;1.70;;;1.60;;
3085;SDS011;52812;48.960;9.108;2023-05-10T09:26:51;1.63;;;1.53;;
3085;SDS011;52812;48.960;9.108;2023-05-10T09:29:17;1.50;;;1.40;;
3085;SDS011;52812;48.960;9.108;2023-05-10T09:31:43;1.87;;;1.33;;
3085;SDS011;52812;48.960;9.108;2023-05-10T09:34:16;1.70;;;1.60;;
3085;SDS011;52812;48.960;9.108;2023-05-10T09:36:50;1.63;;;1.53;;
3085;SDS011;52812;48.960;9.108;2023-05-10T09:39:19;3.20;;;1.60;;
3085;SDS011;52812;48.960;9.108;2023-05-10T09:41:45;1.63;;;1.30;;
3085;SDS011;52812;48.960;9.108;2023-05-10T09:44:12;2.50;;;1.40;;
3085;SDS011;52812;48.960;9.108;2023-05-10T09:46:48;1.40;;;1.30;;
3085;SDS011;52812;48.960;9.108;2023-05-10T09:49:14;1.83;;;1.60;;
3085;SDS011;52812;48.960;9.108;2023-05-10T09:51:40;1.40;;;1.30;;
3085;SDS011;52812;48.960;9.108;2023-05-10T09:54:09;2.53;;;1.30;;
3085;SDS011;52812;48.960;9.108;2023-05-10T09:56:36;1.27;;;1.17;;
3085;SDS011;52812;48.960;9.108;2023-05-10T09:59:05;1.47;;;1.20;;
3085;SDS011;52812;48.960;9.108;2023-05-10T10:01:31;1.37;;;1.13;;
3085;SDS011;52812;48.960;9.108;2023-05-10T10:03:57;1.37;;;1.27;;
3085;SDS011;52812;48.960;9.108;2023-05-10T10:06:23;1.20;;;1.00;;
3085;SDS011;52812;48.960;9.108;2023-05-10T10:08:49;1.20;;;1.10;;
3085;SDS011;52812;48.960;9.108;2023-05-10T10:11:16;1.10;;;1.00;;
3085;SDS011;52812;48.960;9.108;2023-05-10T10:13:42;1.20;;;1.10;;
3085;SDS011;52812;48.960;9.108;2023-05-10T10:16:08;1.20;;;1.10;;
3085;SDS011;52812;48.960;9.108;2023-05-10T10:18:33;1.43;;;1.10;;
3085;SDS011;52812;48.960;9.108;2023-05-10T10:21:04;1.23;;;1.10;;
3085;SDS011;52812;48.960;9.108;2023-05-10T10:23:36;1.80;;;1.20;;
3085;SDS011;52812;48.960;9.108;2023-05-10T10:26:02;1.47;;;1.20;;
3085;SDS011;52812;48.960;9.108;2023-05-10T10:31:27;2.30;;;1.30;;
3085;SDS011;52812;48.960;9.108;2023-05-10T10:34:17;1.30;;;1.20;;
3085;SDS011;52812;48.960;9.108;2023-05-10T10:36:51;1.40;;;1.30;;
3085;SDS011;52812;48.960;9.108;2023-05-10T10:39:17;1.83;;;1.47;;
3085;SDS011;52812;48.960;9.108;2023-05-10T10:41:55;1.43;;;1.33;;
3085;SDS011;52812;48.960;9.108;2023-05-10T10:50:22;1.70;;;1.37;;
3085;SDS011;52812;48.960;9.108;2023-05-10T10:52:32;1.13;;;1.03;;
3085;SDS011;52812;48.960;9.108;2023-05-10T10:57:27;1.30;;;1.20;;
3085;SDS011;52812;48.960;9.108;2023-05-10T11:05:36;1.40;;;1.30;;
3085;SDS011;52812;48.960;9.108;2023-05-10T11:21:26;2.13;;;1.60;;
3085;SDS011;52812;48.960;9.108;2023-05-10T11:23:54;1.63;;;1.40;;
3085;SDS011;52812;48.960;9.108;2023-05-10T11:26:21;1.60;;;1.50;;
3085;SDS011;52812;48.960;9.108;2023-05-10T11:28:50;1.93;;;1.53;;
3085;SDS011;52812;48.960;9.108;2023-05-10T11:31:18;1.40;;;1.30;;
3085;SDS011;52812;48.960;9.108;2023-05-10T11:33:45;2.07;;;1.37;;
3085;SDS011;52812;48.960;9.108;2023-05-10T11:36:50;1.43;;;1.20;;
3085;SDS011;52812;48.960;9.108;2023-05-10T11:39:05;1.70;;;1.43;;
3085;SDS011;52812;48.960;9.108;2023-05-10T11:41:31;1.43;;;1.33;;
3085;SDS011;52812;48.960;9.108;2023-05-10T11:43:57;1.50;;;1.40;;
3085;SDS011;52812;48.960;9.108;2023-05-10T11:46:24;1.73;;;1.50;;
3085;SDS011;52812;48.960;9.108;2023-05-10T11:48:55;2.17;;;1.53;;
3085;SDS011;52812;48.960;9.108;2023-05-10T11:51:25;2.07;;;1.57;;
3085;SDS011;52812;48.960;9.108;2023-05-10T11:53:52;1.57;;;1.40;;
3085;SDS011;52812;48.960;9.108;2023-05-10T11:56:19;2.03;;;1.67;;
3085;SDS011;52812;48.960;9.108;2023-05-10T11:58:45;1.60;;;1.50;;
3085;SDS011;52812;48.960;9.108;2023-05-10T12:01:18;1.87;;;1.70;;
3085;SDS011;52812;48.960;9.108;2023-05-10T12:03:43;2.27;;;1.97;;
3085;SDS011;52812;48.960;9.108;2023-05-10T12:06:09;2.90;;;1.90;;
3085;SDS011;52812;48.960;9.108;2023-05-10T12:08:35;2.13;;;1.70;;
3085;SDS011;52812;48.960;9.108;2023-05-10T12:11:05;2.10;;;1.90;;
3085;SDS011;52812;48.960;9.108;2023-05-10T12:13:32;2.43;;;1.90;;
3085;SDS011;52812;48.960;9.108;2023-05-10T12:15:57;2.10;;;1.90;;
3085;SDS011;52812;48.960;9.108;2023-05-10T12:18:23;2.10;;;1.70;;
3085;SDS011;52812;48.960;9.108;2023-05-10T12:20:52;2.53;;;1.83;;
3085;SDS011;52812;48.960;9.108;2023-05-10T12:23:18;1.60;;;1.50;;
3085;SDS011;52812;48.960;9.108;2023-05-10T12:25:45;1.90;;;1.70;;
3085;SDS011;52812;48.960;9.108;2023-05-10T12:28:11;2.73;;;1.50;;
3085;SDS011;52812;48.960;9.108;2023-05-10T12:30:37;1.87;;;1.50;;
3085;SDS011;52812;48.960;9.108;2023-05-10T12:33:10;2.63;;;1.57;;
3085;SDS011;52812;48.960;9.108;2023-05-10T12:35:44;1.80;;;1.70;;
3085;SDS011;52812;48.960;9.108;2023-05-10T12:38:32;2.07;;;1.60;;
3085;SDS011;52812;48.960;9.108;2023-05-10T12:41:10;2.47;;;1.50;;
3085;SDS011;52812;48.960;9.108;2023-05-10T12:43:42;4.20;;;1.87;;
3085;SDS011;52812;48.960;9.108;2023-05-10T12:46:09;1.77;;;1.43;;
3085;SDS011;52812;48.960;9.108;2023-05-10T12:48:39;1.70;;;1.53;;
3085;SDS011;52812;48.960;9.108;2023-05-10T12:51:06;1.50;;;1.40;;
3085;SDS011;52812;48.960;9.108;2023-05-10T12:53:37;1.40;;;1.30;;
3085;SDS011;52812;48.960;9.108;2023-05-10T12:56:03;1.77;;;1.27;;
3085;SDS011;52812;48.960;9.108;2023-05-10T12:58:29;2.00;;;1.20;;
3085;SDS011;52812;48.960;9.108;2023-05-10T13:00:55;1.83;;;1.63;;
3085;SDS011;52812;48.960;9.108;2023-05-10T13:03:21;4.87;;;1.20;;
3085;SDS011;52812;48.960;9.108;2023-05-10T13:05:47;3.90;;;1.40;;
3085;SDS011;52812;48.960;9.108;2023-05-10T13:08:12;2.33;;;1.60;;
3085;SDS011;52812;48.960;9.108;2023-05-10T13:10:38;1.57;;;1.47;;
3085;SDS011;52812;48.960;9.108;2023-05-10T13:13:04;1.73;;;1.30;;
3085;SDS011;52812;48.960;9.108;2023-05-10T13:15:30;1.70;;;1.40;;
3085;SDS011;52812;48.960;9.108;2023-05-10T13:17:55;1.43;;;1.33;;
3085;SDS011;52812;48.960;9.108;2023-05-10T13:20:21;1.63;;;1.37;;
3085;SDS011;52812;48.960;9.108;2023-05-10T13:22:47;3.00;;;1.30;;
3085;SDS011;52812;48.960;9.108;2023-05-10T13:25:12;1.60;;;1.50;;
3085;SDS011;52812;48.960;9.108;2023-05-10T13:27:39;1.97;;;1.30;;
3085;SDS011;52812;48.960;9.108;2023-05-10T13:30:05;1.40;;;1.30;;
3085;SDS011;52812;48.960;9.108;2023-05-10T13:32:32;2.03;;;1.60;;
3085;SDS011;52812;48.960;9.108;2023-05-10T13:34:58;1.40;;;1.30;;
3085;SDS011;52812;48.960;9.108;2023-05-10T13:37:23;3.50;;;2.13;;
3085;SDS011;52812;48.960;9.108;2023-05-10T13:39:49;1.50;;;1.40;;
3085;SDS011;52812;48.960;9.108;2023-05-10T13:42:14;1.40;;;1.30;;
3085;SDS011;52812;48.960;9.108;2023-05-10T13:44:40;1.93;;;1.50;;
3085;SDS011;52812;48.960;9.108;2023-05-10T13:47:06;1.67;;;1.57;;
3085;SDS011;52812;48.960;9.108;2023-05-10T13:49:32;2.03;;;1.43;;
3085;SDS011;52812;48.960;9.108;2023-05-10T13:51:58;1.57;;;1.33;;
3085;SDS011;52812;48.960;9.108;2023-05-10T13:54:25;3.00;;;1.43;;
3085;SDS011;52812;48.960;9.108;2023-05-10T13:56:54;1.60;;;1.50;;
3085;SDS011;52812;48.960;9.108;2023-05-10T13:59:19;2.63;;;1.30;;
3085;SDS011;52812;48.960;9.108;2023-05-10T14:01:45;1.40;;;1.30;;
3085;SDS011;52812;48.960;9.108;2023-05-10T14:04:10;2.13;;;1.30;;
3085;SDS011;52812;48.960;9.108;2023-05-10T14:06:36;1.83;;;1.40;;
3085;SDS011;52812;48.960;9.108;2023-05-10T14:09:02;2.40;;;1.40;;
3085;SDS011;52812;48.960;9.108;2023-05-10T14:11:28;2.37;;;1.43;;
3085;SDS011;52812;48.960;9.108;2023-05-10T14:13:54;1.53;;;1.37;;
3085;SDS011;52812;48.960;9.108;2023-05-10T14:16:19;1.57;;;1.20;;
3085;SDS011;52812;48.960;9.108;2023-05-10T14:18:45;1.73;;;1.30;;
3085;SDS011;52812;48.960;9.108;2023-05-10T14:21:11;1.50;;;1.30;;
3085;SDS011;52812;48.960;9.108;2023-05-10T14:23:36;1.60;;;1.20;;
3085;SDS011;52812;48.960;9.108;2023-05-10T14:26:02;1.90;;;1.13;;
3085;SDS011;52812;48.960;9.108;2023-05-10T14:28:28;1.20;;;1.10;;
3085;SDS011;52812;48.960;9.108;2023-05-10T14:30:53;1.97;;;1.30;;
3085;SDS011;52812;48.960;9.108;2023-05-10T14:33:19;2.17;;;1.47;;
3085;SDS011;52812;48.960;9.108;2023-05-10T14:35:45;2.03;;;1.40;;
3085;SDS011;52812;48.960;9.108;2023-05-10T14:38:11;2.87;;;1.40;;
3085;SDS011;52812;48.960;9.108;2023-05-10T14:40:37;2.00;;;1.40;;
3085;SDS011;52812;48.960;9.108;2023-05-10T14:43:03;1.50;;;1.30;;
3085;SDS011;52812;48.960;9.108;2023-05-10T14:45:29;1.30;;;1.20;;
3085;SDS011;52812;48.960;9.108;2023-05-10T14:47:54;1.30;;;1.20;;
3085;SDS011;52812;48.960;9.108;2023-05-10T14:50:20;1.57;;;1.40;;
3085;SDS011;52812;48.960;9.108;2023-05-10T14:52:45;1.80;;;1.20;;
3085;SDS011;52812;48.960;9.108;2023-05-10T14:55:11;1.53;;;1.43;;
3085;SDS011;52812;48.960;9.108;2023-05-10T14:57:36;1.73;;;1.37;;
3085;SDS011;52812;48.960;9.108;2023-05-10T15:00:02;1.40;;;1.30;;
3085;SDS011;52812;48.960;9.108;2023-05-10T15:02:28;1.30;;;1.20;;
3085;SDS011;52812;48.960;9.108;2023-05-10T15:04:55;1.50;;;1.40;;
3085;SDS011;52812;48.960;9.108;2023-05-10T15:07:22;1.83;;;1.30;;
3085;SDS011;52812;48.960;9.108;2023-05-10T15:09:48;1.87;;;1.10;;
3085;SDS011;52812;48.960;9.108;2023-05-10T15:12:13;1.87;;;1.30;;
3085;SDS011;52812;48.960;9.108;2023-05-10T15:14:39;1.50;;;1.40;;
3085;SDS011;52812;48.960;9.108;2023-05-10T15:17:05;1.67;;;1.30;;
3085;SDS011;52812;48.960;9.108;2023-05-10T15:19:32;2.13;;;1.50;;
3085;SDS011;52812;48.960;9.108;2023-05-10T15:21:58;1.40;;;1.30;;
3085;SDS011;52812;48.960;9.108;2023-05-10T15:24:24;1.33;;;1.17;;
3085;SDS011;52812;48.960;9.108;2023-05-10T15:26:50;1.40;;;1.30;;
3085;SDS011;52812;48.960;9.108;2023-05-10T15:29:15;1.77;;;1.60;;
3085;SDS011;52812;48.960;9.108;2023-05-10T15:31:45;2.10;;;1.43;;
3085;SDS011;52812;48.960;9.108;2023-05-10T15:34:11;1.50;;;1.40;;
3085;SDS011;52812;48.960;9.108;2023-05-10T15:36:37;1.80;;;1.50;;
3085;SDS011;52812;48.960;9.108;2023-05-10T15:39:03;2.13;;;1.60;;
3085;SDS011;52812;48.960;9.108;2023-05-10T15:41:28;1.40;;;1.30;;
3085;SDS011;52812;48.960;9.108;2023-05-10T15:43:54;2.60;;;1.50;;
3085;SDS011;52812;48.960;9.108;2023-05-10T15:46:20;2.47;;;1.37;;
3085;SDS011;52812;48.960;9.108;2023-05-10T15:48:46;1.80;;;1.30;;
3085;SDS011;52812;48.960;9.108;2023-05-10T15:51:11;3.00;;;1.40;;